createdAt,value
2022-12-24T00:56:24.704Z,98321.31
2022-12-24T00:58:54.016Z,98357.88
2022-12-24T01:01:27.089Z,98312.00
2022-12-24T01:04:18.032Z,98324.75
2022-12-24T01:06:46.457Z,98334.06
2022-12-24T01:09:15.441Z,98302.63
2022-12-24T01:11:42.727Z,98323.88
2022-12-24T01:14:09.819Z,98339.16
2022-12-24T01:16:37.215Z,98337.47
2022-12-24T01:19:09.133Z,98356.19
2022-12-24T01:21:51.993Z,98330.69
2022-12-24T01:30:26.556Z,98314.56
2022-12-24T01:33:33.204Z,98313.69
2022-12-24T01:36:18.337Z,98356.22
2022-12-24T01:42:19.624Z,98332.41
2022-12-24T01:44:49.815Z,98307.78
2022-12-24T01:47:25.875Z,98351.13
2022-12-24T01:50:03.721Z,98348.56
2022-12-24T01:52:36.791Z,98315.44
2022-12-24T01:55:12.988Z,98359.63
2022-12-24T01:57:50.733Z,98363.88
2022-12-24T02:00:18.180Z,98319.66
2022-12-24T02:02:49.780Z,98351.13
2022-12-24T02:05:28.970Z,98302.69
2022-12-24T02:07:57.408Z,98319.66
2022-12-24T02:10:30.192Z,98323.91
2022-12-24T02:12:57.985Z,98370.69
2022-12-24T02:15:39.644Z,98359.63
2022-12-24T02:18:21.030Z,98330.72
2022-12-24T02:21:10.152Z,98340.09
2022-12-24T02:23:57.266Z,98360.50
2022-12-24T02:27:15.117Z,98361.31
2022-12-24T02:29:57.836Z,98356.22
2022-12-24T02:32:29.052Z,98382.56
2022-12-24T02:35:25.164Z,98346.00
2022-12-24T02:38:31.248Z,98377.47
2022-12-24T02:41:20.838Z,98366.41
2022-12-24T02:43:55.186Z,98319.66
2022-12-24T02:46:31.796Z,98332.41
2022-12-24T02:49:08.143Z,98336.63
2022-12-24T02:51:49.304Z,98329.84
2022-12-24T03:01:21.534Z,98349.34
2022-12-24T03:04:03.579Z,98401.25
2022-12-24T03:07:24.031Z,98366.38
2022-12-24T03:10:04.765Z,98362.97
2022-12-24T03:15:32.019Z,98341.72
2022-12-24T03:21:07.446Z,98362.16
2022-12-24T03:23:37.520Z,98382.56
2022-12-24T03:26:09.298Z,98333.25
2022-12-24T03:28:42.796Z,98386.81
2022-12-24T03:31:17.239Z,98338.38
2022-12-24T03:33:46.018Z,98337.50
2022-12-24T03:36:13.792Z,98311.16
2022-12-24T03:38:54.713Z,98373.22
2022-12-24T03:41:24.893Z,98356.22
2022-12-24T03:43:53.847Z,98346.00
2022-12-24T03:46:36.160Z,98326.44
2022-12-24T03:49:12.480Z,98359.59
2022-12-24T03:51:42.214Z,98340.88
2022-12-24T03:54:10.283Z,98339.16
2022-12-24T03:56:43.949Z,98342.59
2022-12-24T04:06:33.846Z,98397.81
2022-12-24T04:10:06.416Z,98350.19
2022-12-24T04:25:05.525Z,98432.63
2022-12-24T04:27:40.508Z,98405.38
2022-12-24T04:30:44.967Z,98396.03
2022-12-24T04:36:29.753Z,98391.81
2022-12-24T04:39:08.223Z,98391.75
2022-12-24T04:41:43.119Z,98404.56
2022-12-24T04:44:22.197Z,98408.78
2022-12-24T04:47:01.947Z,98416.44
2022-12-24T04:49:33.372Z,98413.88
2022-12-24T04:52:13.535Z,98459.84
2022-12-24T04:54:44.025Z,98424.09
2022-12-24T04:57:19.987Z,98400.28
2022-12-24T05:00:01.581Z,98396.91
2022-12-24T05:02:37.563Z,98413.03
2022-12-24T05:05:22.609Z,98427.50
2022-12-24T05:08:05.487Z,98453.91
2022-12-24T05:10:55.664Z,98471.72
2022-12-24T05:13:23.313Z,98446.19
2022-12-24T05:15:50.997Z,98418.97
2022-12-24T05:18:19.389Z,98436.81
2022-12-24T05:20:49.561Z,98455.53
2022-12-24T05:23:37.444Z,98473.44
2022-12-24T05:26:23.426Z,98422.38
2022-12-24T05:29:01.058Z,98485.34
2022-12-24T05:31:34.542Z,98448.69
2022-12-24T05:34:06.887Z,98451.22
2022-12-24T05:36:39.588Z,98484.41
2022-12-24T05:39:19.389Z,98451.22
2022-12-24T05:41:51.270Z,98452.09
2022-12-24T05:44:22.583Z,98459.75
2022-12-24T05:46:51.797Z,98463.97
2022-12-24T05:49:21.201Z,98468.25
2022-12-24T05:52:09.547Z,98458.84
2022-12-24T05:54:38.737Z,98461.41
2022-12-24T05:57:07.503Z,98465.72
2022-12-24T05:59:34.677Z,98445.28
2022-12-24T06:02:03.001Z,98487.00
2022-12-24T06:04:30.151Z,98478.47
2022-12-24T06:06:57.226Z,98506.50
2022-12-24T06:09:24.178Z,98484.34
2022-12-24T06:11:51.332Z,98481.78
2022-12-24T06:14:18.403Z,98516.69
2022-12-24T06:16:45.482Z,98483.50
2022-12-24T06:19:12.588Z,98504.72
2022-12-24T06:21:39.681Z,98499.63
2022-12-24T06:24:06.967Z,98517.53
2022-12-24T06:26:34.009Z,98534.53
2022-12-24T06:29:01.060Z,98530.28
2022-12-24T06:31:28.174Z,98508.94
2022-12-24T06:33:55.487Z,98518.31
2022-12-24T06:36:24.049Z,98520.06
2022-12-24T06:38:51.398Z,98528.53
2022-12-24T06:41:18.585Z,98534.53
2022-12-24T06:43:46.417Z,98507.25
2022-12-24T06:46:13.792Z,98528.53
2022-12-24T06:48:40.998Z,98548.97
2022-12-24T06:51:08.074Z,98554.91
2022-12-24T06:53:35.044Z,98536.19
2022-12-24T06:56:06.289Z,98543.00
2022-12-24T06:58:33.825Z,98543.81
2022-12-24T07:01:07.983Z,98543.00
2022-12-24T07:03:35.281Z,98537.81
2022-12-24T07:06:02.483Z,98554.00
2022-12-24T07:08:29.806Z,98554.84
2022-12-24T07:10:56.761Z,98571.03
2022-12-24T07:13:23.791Z,98574.41
2022-12-24T07:16:00.808Z,98549.75
2022-12-24T07:18:28.328Z,98572.72
2022-12-24T07:24:49.654Z,98538.63
2022-12-24T07:28:39.975Z,98588.84
2022-12-24T07:31:15.163Z,98532.63
2022-12-24T07:39:49.204Z,98582.88
2022-12-24T07:42:16.376Z,98565.81
2022-12-24T07:44:44.276Z,98560.72
2022-12-24T07:47:20.808Z,98551.41
2022-12-24T07:49:47.911Z,98587.13
2022-12-24T07:52:15.070Z,98572.66
2022-12-24T07:54:47.283Z,98611.88
2022-12-24T07:57:14.414Z,98605.00
2022-12-24T07:59:41.394Z,98605.03
2022-12-24T08:02:17.633Z,98578.66
2022-12-24T08:04:45.418Z,98598.22
2022-12-24T08:07:14.958Z,98617.00
2022-12-24T08:09:42.131Z,98603.31
2022-12-24T08:12:09.401Z,98621.22
2022-12-24T08:15:05.087Z,98626.34
2022-12-24T08:17:37.069Z,98604.22
2022-12-24T08:20:07.834Z,98604.22
2022-12-24T08:22:34.865Z,98602.56
2022-12-24T08:25:01.874Z,98596.59
2022-12-24T08:27:28.972Z,98611.94
2022-12-24T08:29:55.970Z,98614.50
2022-12-24T08:32:23.035Z,98647.78
2022-12-24T08:34:51.570Z,98629.84
2022-12-24T08:37:18.569Z,98617.09
2022-12-24T08:39:45.966Z,98639.28
2022-12-24T08:42:13.062Z,98613.75
2022-12-24T08:44:40.339Z,98646.97
2022-12-24T08:47:07.577Z,98611.22
2022-12-24T08:49:34.522Z,98610.38
2022-12-24T08:52:09.022Z,98658.09
2022-12-24T08:54:36.059Z,98621.44
2022-12-24T08:57:03.366Z,98639.34
2022-12-24T08:59:30.600Z,98631.69
2022-12-24T09:02:00.094Z,98654.72
2022-12-24T09:04:28.443Z,98636.81
2022-12-24T09:09:46.939Z,98653.88
2022-12-24T09:12:14.110Z,98632.56
2022-12-24T09:14:41.249Z,98666.69
2022-12-24T09:17:08.232Z,98652.13
2022-12-24T09:19:35.287Z,98660.69
2022-12-24T09:22:02.236Z,98664.13
2022-12-24T09:24:29.217Z,98684.53
2022-12-24T09:26:58.094Z,98693.06
2022-12-24T09:29:25.575Z,98656.44
2022-12-24T09:31:52.807Z,98662.41
2022-12-24T09:34:21.739Z,98656.44
2022-12-24T09:36:54.347Z,98667.53
2022-12-24T09:39:21.331Z,98653.88
2022-12-24T09:42:29.316Z,98687.13
2022-12-24T09:45:01.365Z,98688.00
2022-12-24T09:47:39.982Z,98668.41
2022-12-24T09:50:25.941Z,98679.47
2022-12-24T09:52:53.290Z,98673.53
2022-12-24T09:55:44.971Z,98676.91
2022-12-24T09:58:21.928Z,98671.81
2022-12-24T10:00:50.301Z,98700.81
2022-12-24T10:03:17.994Z,98689.78
2022-12-24T10:06:09.023Z,98712.81
2022-12-24T10:08:54.222Z,98672.72
2022-12-24T10:11:49.769Z,98721.34
2022-12-24T10:14:56.626Z,98729.88
2022-12-24T10:17:35.926Z,98734.09
2022-12-24T10:20:21.712Z,98744.34
2022-12-24T10:23:10.543Z,98710.28
2022-12-24T10:25:51.504Z,98740.13
2022-12-24T10:28:29.943Z,98710.31
2022-12-24T10:31:00.305Z,98713.72
2022-12-24T10:33:44.226Z,98737.59
2022-12-24T10:36:18.834Z,98736.78
2022-12-24T10:38:50.939Z,98757.22
2022-12-24T10:41:20.333Z,98722.31
2022-12-24T10:43:47.346Z,98724.84
2022-12-24T10:46:35.912Z,98757.25
2022-12-24T10:49:04.948Z,98753.84
2022-12-24T10:51:43.169Z,98749.56
2022-12-24T10:54:34.206Z,98786.19
2022-12-24T10:57:24.248Z,98740.16
2022-12-24T10:59:55.350Z,98737.59
2022-12-24T11:02:38.401Z,98788.75
2022-12-24T11:05:28.774Z,98762.31
2022-12-24T11:08:20.498Z,98789.56
2022-12-24T11:11:34.199Z,98775.09
2022-12-24T11:14:01.585Z,98795.56
2022-12-24T11:16:30.523Z,98788.72
2022-12-24T11:18:58.886Z,98796.38
2022-12-24T11:21:32.228Z,98805.75
2022-12-24T11:24:03.090Z,98821.94
2022-12-24T11:26:30.936Z,98818.53
2022-12-24T11:29:30.783Z,98804.91
2022-12-24T11:32:21.654Z,98821.94
2022-12-24T11:34:49.096Z,98784.44
2022-12-24T11:37:24.104Z,98810.00
2022-12-24T11:40:00.407Z,98794.66
2022-12-24T11:42:38.164Z,98824.47
2022-12-24T11:45:26.443Z,98811.69
2022-12-24T11:48:59.259Z,98805.75
2022-12-24T11:51:29.744Z,98823.63
2022-12-24T11:54:11.467Z,98829.56
2022-12-24T11:56:52.602Z,98850.00
2022-12-24T11:59:27.370Z,98831.25
2022-12-24T12:02:53.603Z,98855.97
2022-12-24T12:12:16.027Z,98835.41
2022-12-24T12:15:01.193Z,98838.75
2022-12-24T12:17:38.207Z,98832.75
2022-12-24T12:20:43.763Z,98870.22
2022-12-24T12:23:34.790Z,98864.19
2022-12-24T12:26:09.174Z,98846.28
2022-12-24T12:29:01.872Z,98874.31
2022-12-24T12:31:49.314Z,98877.69
2022-12-24T12:34:21.265Z,98842.69
2022-12-24T12:37:33.281Z,98850.31
2022-12-24T12:40:00.641Z,98841.75
2022-12-24T12:42:59.150Z,98858.72
2022-12-24T12:45:59.072Z,98882.47
2022-12-24T12:48:29.190Z,98888.34
2022-12-24T12:51:02.942Z,98879.78
2022-12-24T12:54:04.938Z,98908.75
2022-12-24T12:56:35.653Z,98878.88
2022-12-24T12:59:10.750Z,98910.41
2022-12-24T13:02:09.384Z,98922.31
2022-12-24T13:04:36.506Z,98923.13
2022-12-24T13:07:26.245Z,98919.69
2022-12-24T13:10:02.326Z,98889.00
2022-12-24T13:12:51.161Z,98911.16
2022-12-24T13:15:29.910Z,98890.66
2022-12-24T13:18:01.672Z,98932.44
2022-12-24T13:20:32.585Z,98915.34
2022-12-24T13:23:02.187Z,98900.88
2022-12-24T13:25:49.300Z,98906.94
2022-12-24T13:28:24.533Z,98928.22
2022-12-24T13:31:12.667Z,98896.75
2022-12-24T13:33:39.654Z,98934.31
2022-12-24T13:36:11.984Z,98913.78
2022-12-24T13:38:56.900Z,98908.72
2022-12-24T13:41:41.406Z,98930.03
2022-12-24T13:44:13.316Z,98942.91
2022-12-24T13:46:49.620Z,98949.72
2022-12-24T13:49:33.501Z,98948.06
2022-12-24T13:52:09.510Z,98945.53
2022-12-24T13:54:42.801Z,98954.97
2022-12-24T13:57:41.696Z,98953.31
2022-12-24T14:00:20.682Z,98956.72
2022-12-24T14:03:07.801Z,98913.22
2022-12-24T14:05:38.101Z,98943.06
2022-12-24T14:08:13.556Z,98931.13
2022-12-24T14:10:46.299Z,98943.13
2022-12-24T14:13:38.119Z,98968.78
2022-12-24T14:16:21.806Z,98945.75
2022-12-24T14:18:58.780Z,98952.63
2022-12-24T14:21:35.052Z,98959.50
2022-12-24T14:24:03.305Z,98980.94
2022-12-24T14:26:36.264Z,98986.03
2022-12-24T14:29:12.026Z,98947.66
2022-12-24T14:31:49.889Z,98989.44
2022-12-24T14:34:17.023Z,98974.09
2022-12-24T14:36:44.545Z,98971.56
2022-12-24T14:39:16.508Z,98962.22
2022-12-24T14:41:59.800Z,98970.72
2022-12-24T14:44:48.492Z,98995.50
2022-12-24T14:47:21.755Z,99014.34
2022-12-24T14:50:26.092Z,99021.28
2022-12-24T14:53:18.833Z,99015.31
2022-12-24T14:55:47.770Z,99014.50
2022-12-24T14:58:53.298Z,99032.50
2022-12-24T15:01:25.343Z,99032.53
2022-12-24T15:04:10.677Z,99043.66
2022-12-24T15:06:52.849Z,99036.88
2022-12-24T15:09:24.498Z,99014.66
2022-12-24T15:11:54.312Z,99018.09
2022-12-24T15:14:22.030Z,99028.38
2022-12-24T15:17:18.589Z,99048.91
2022-12-24T15:19:47.015Z,99040.41
2022-12-24T15:22:25.586Z,99048.97
2022-12-24T15:24:52.671Z,99061.78
2022-12-24T15:27:21.703Z,99060.91
2022-12-24T15:29:50.501Z,99050.72
2022-12-24T15:32:18.989Z,99048.16
2022-12-24T15:34:47.564Z,99065.22
2022-12-24T15:37:17.648Z,99089.16
2022-12-24T15:39:44.844Z,99084.88
2022-12-24T15:42:14.720Z,99054.16
2022-12-24T15:45:05.111Z,99087.47
2022-12-24T15:47:39.060Z,99090.91
2022-12-24T15:50:15.875Z,99091.78
2022-12-24T15:52:42.929Z,99103.78
2022-12-24T15:55:38.710Z,99079.84
2022-12-24T15:58:27.289Z,99098.66
2022-12-24T16:01:09.812Z,99101.19
2022-12-24T16:03:38.459Z,99073.88
2022-12-24T16:06:06.669Z,99081.56
2022-12-24T16:08:39.187Z,99071.31
2022-12-24T16:11:08.229Z,99108.06
2022-12-24T16:13:41.001Z,99090.09
2022-12-24T16:16:12.880Z,99098.66
2022-12-24T16:18:49.283Z,99103.75
2022-12-24T16:21:53.896Z,99081.50
2022-12-24T16:24:23.413Z,99103.69
2022-12-24T16:26:50.786Z,99115.69
2022-12-24T16:29:19.476Z,99125.06
2022-12-24T16:31:51.043Z,99120.78
2022-12-24T16:34:18.120Z,99150.69
2022-12-24T16:36:45.812Z,99131.03
2022-12-24T16:39:33.800Z,99151.56
2022-12-24T16:42:21.304Z,99128.44
2022-12-24T16:44:48.682Z,99134.41
2022-12-24T16:47:22.888Z,99125.84
2022-12-24T16:49:57.570Z,99136.97
2022-12-24T16:52:29.810Z,99136.97
2022-12-24T16:54:57.389Z,99130.94
2022-12-24T16:57:25.329Z,99139.50
2022-12-24T16:59:57.584Z,99179.69
2022-12-24T17:02:28.169Z,99180.53
2022-12-24T17:05:04.701Z,99141.19
2022-12-24T17:07:31.859Z,99172.81
2022-12-24T17:09:58.950Z,99179.63
2022-12-24T17:12:26.183Z,99165.94
2022-12-24T17:14:54.396Z,99170.19
2022-12-24T17:17:33.901Z,99190.72
2022-12-24T17:20:04.930Z,99192.41
2022-12-24T17:22:32.108Z,99186.41
2022-12-24T17:24:59.185Z,99183.00
2022-12-24T17:27:26.457Z,99180.38
2022-12-24T17:29:54.883Z,99201.75
2022-12-24T17:32:22.201Z,99203.47
2022-12-24T17:34:49.326Z,99183.81
2022-12-24T17:37:16.396Z,99186.34
2022-12-24T17:39:43.389Z,99217.13
2022-12-24T17:42:10.598Z,99219.69
2022-12-24T17:44:37.587Z,99197.44
2022-12-24T17:47:05.438Z,99216.22
2022-12-24T17:49:32.720Z,99206.78
2022-12-24T17:52:00.106Z,99209.38
2022-12-24T17:54:27.082Z,99240.16
2022-12-24T17:56:54.144Z,99213.59
2022-12-24T17:59:21.310Z,99211.88
2022-12-24T18:01:56.749Z,99229.81
2022-12-24T18:04:26.219Z,99232.38
2022-12-24T18:06:59.584Z,99250.31
2022-12-24T18:09:29.498Z,99237.50
2022-12-24T18:11:56.547Z,99258.91
2022-12-24T18:14:23.607Z,99228.94
2022-12-24T18:16:50.750Z,99252.00
2022-12-24T18:19:17.857Z,99245.16
2022-12-24T18:21:46.111Z,99216.97
2022-12-24T18:24:13.359Z,99208.41
2022-12-24T18:26:40.463Z,99200.72
2022-12-24T18:29:08.966Z,99226.34
2022-12-24T18:31:36.416Z,99219.50
2022-12-24T18:34:04.503Z,99225.47
2022-12-24T18:36:31.767Z,99234.91
2022-12-24T18:38:58.885Z,99236.56
2022-12-24T18:41:27.916Z,99255.34
2022-12-24T18:43:55.071Z,99255.38
2022-12-24T18:46:23.857Z,99256.19
2022-12-24T18:48:51.117Z,99245.03
2022-12-24T18:51:18.960Z,99244.16
2022-12-24T18:53:45.896Z,99248.38
2022-12-24T18:56:15.934Z,99261.19
2022-12-24T18:58:43.318Z,99246.59
2022-12-24T19:01:18.031Z,99285.94
2022-12-24T19:03:45.329Z,99292.75
2022-12-24T19:06:12.272Z,99287.63
2022-12-24T19:08:56.990Z,99269.59
2022-12-24T19:11:25.338Z,99280.69
2022-12-24T19:13:53.261Z,99272.13
2022-12-24T19:16:20.744Z,99264.41
2022-12-24T19:18:47.942Z,99271.28
2022-12-24T19:21:15.685Z,99285.78
2022-12-24T19:23:42.918Z,99308.84
2022-12-24T19:26:11.236Z,99286.56
2022-12-24T19:28:38.326Z,99282.31
2022-12-24T19:31:15.054Z,99271.19
2022-12-24T19:33:46.777Z,99288.31
2022-12-24T19:36:16.134Z,99307.09
2022-12-24T19:38:43.654Z,99302.75
2022-12-24T19:41:16.096Z,99320.69
2022-12-24T19:43:46.674Z,99314.75
2022-12-24T19:46:15.249Z,99305.22
2022-12-24T19:48:45.423Z,99341.97
2022-12-24T19:51:12.624Z,99331.66
2022-12-24T19:53:39.751Z,99330.81
2022-12-24T19:56:07.280Z,99321.41
2022-12-24T19:58:34.482Z,99303.34
2022-12-24T20:01:14.737Z,99320.50
2022-12-24T20:03:42.463Z,99324.69
2022-12-24T20:06:09.624Z,99359.81
2022-12-24T20:08:37.206Z,99351.19
2022-12-24T20:11:06.675Z,99336.56
2022-12-24T20:13:37.303Z,99341.69
2022-12-24T20:16:09.194Z,99351.03
2022-12-24T20:18:36.533Z,99345.06
2022-12-24T20:21:05.172Z,99381.94
2022-12-24T20:23:32.173Z,99396.38
2022-12-24T20:26:01.516Z,99370.72
2022-12-24T20:28:29.156Z,99373.22
2022-12-24T20:30:56.249Z,99374.94
2022-12-24T20:33:23.275Z,99395.53
2022-12-24T20:35:50.318Z,99390.38
2022-12-24T20:38:17.387Z,99391.19
2022-12-24T20:40:45.245Z,99390.38
2022-12-24T20:43:12.878Z,99381.84
2022-12-24T20:45:40.100Z,99379.28
2022-12-24T20:48:07.229Z,99376.66
2022-12-24T20:50:34.348Z,99344.13
2022-12-24T20:53:01.374Z,99355.28
2022-12-24T20:55:28.485Z,99382.66
2022-12-24T20:57:55.573Z,99341.53
2022-12-24T21:00:23.523Z,99323.53
2022-12-24T21:02:52.110Z,99362.06
2022-12-24T21:05:19.297Z,99362.06
2022-12-24T21:07:48.237Z,99345.78
2022-12-24T21:10:15.590Z,99339.81
2022-12-24T21:12:59.052Z,99334.56
2022-12-24T21:15:28.177Z,99355.94
2022-12-24T21:17:55.741Z,99381.63
2022-12-24T21:20:25.024Z,99360.16
2022-12-24T21:22:55.970Z,99366.19
2022-12-24T21:25:27.598Z,99360.16
2022-12-24T21:27:57.386Z,99371.25
2022-12-24T21:30:24.703Z,99339.53
2022-12-24T21:32:51.930Z,99354.00
2022-12-24T21:35:19.059Z,99344.56
2022-12-24T21:37:48.588Z,99351.44
2022-12-24T21:40:15.659Z,99342.81
2022-12-24T21:42:42.803Z,99369.31
2022-12-24T21:45:10.945Z,99352.94
2022-12-24T21:47:38.421Z,99392.38
2022-12-24T21:50:29.984Z,99382.00
2022-12-24T21:53:19.179Z,99359.59
2022-12-24T21:55:46.367Z,99388.69
2022-12-24T21:58:13.707Z,99394.69
2022-12-24T22:00:40.993Z,99409.19
2022-12-24T22:03:11.152Z,99376.56
2022-12-24T22:05:38.192Z,99391.09
2022-12-24T22:08:27.738Z,99407.34
2022-12-24T22:11:16.451Z,99416.66
2022-12-24T22:13:43.454Z,99399.47
2022-12-24T22:16:16.067Z,99389.22
2022-12-24T22:18:43.272Z,99386.59
2022-12-24T22:21:11.524Z,99427.66
2022-12-24T22:23:42.362Z,99392.41
2022-12-24T22:26:11.911Z,99388.97
2022-12-24T22:28:39.007Z,99412.16
2022-12-24T22:31:08.372Z,99434.38
2022-12-24T22:33:42.125Z,99439.41
2022-12-24T22:36:09.055Z,99445.94
2022-12-24T22:38:36.455Z,99415.97
2022-12-24T22:41:09.809Z,99440.03
2022-12-24T22:43:39.821Z,99423.75
2022-12-24T22:46:07.918Z,99436.56
2022-12-24T22:48:43.456Z,99424.53
2022-12-24T22:51:14.168Z,99447.66
2022-12-24T22:53:41.435Z,99448.47
2022-12-24T22:56:09.673Z,99426.19
2022-12-24T22:58:37.272Z,99421.16
2022-12-24T23:01:06.476Z,99408.28
2022-12-24T23:03:33.944Z,99422.88
2022-12-24T23:06:04.094Z,99439.16
2022-12-24T23:08:32.138Z,99451.94
2022-12-24T23:11:15.756Z,99433.03
2022-12-24T23:14:02.781Z,99429.50
2022-12-24T23:16:33.397Z,99465.47
2022-12-24T23:19:01.194Z,99471.41
2022-12-24T23:21:28.217Z,99461.16
2022-12-24T23:23:57.089Z,99426.84
2022-12-24T23:26:24.381Z,99462.00
2022-12-24T23:28:53.226Z,99422.41
2022-12-24T23:31:20.780Z,99434.38
2022-12-24T23:33:48.010Z,99461.00
2022-12-24T23:36:15.215Z,99439.41
2022-12-24T23:38:42.252Z,99441.91
2022-12-24T23:41:09.396Z,99447.75
2022-12-24T23:43:36.459Z,99474.34
2022-12-24T23:46:03.565Z,99485.41
2022-12-24T23:48:30.557Z,99467.38
2022-12-24T23:51:14.065Z,99474.09
2022-12-24T23:53:41.086Z,99474.94
2022-12-24T23:56:08.396Z,99482.69
2022-12-24T23:58:35.439Z,99471.53
